Time;durP1;ratioP1;P1;durP2;ratioP2;P2;SDS_P1;SDS_P2;PMS_P1;PMS_P2;Temp;Humidity;BMP_temperature;BMP_pressure;BME280_temperature;BME280_humidity;BME280_pressure;Samples;Min_cycle;Max_cycle;Signal;HPM_P1;HPM_P2
2024/01/06 00:02:08;;;;;;;20.27;8.20;;;;;;;-15.50;51.43;99438.53;6276570;22;20015;-58
2024/01/06 00:04:34;;;;;;;18.13;7.70;;;;;;;-15.45;51.73;99437.75;6276624;22;20075;-59
2024/01/06 00:06:59;;;;;;;12.10;6.05;;;;;;;-15.33;51.91;99423.41;6276404;22;20578;-55
2024/01/06 00:09:25;;;;;;;14.65;6.03;;;;;;;-15.37;51.87;99419.91;6275945;22;20329;-54
2024/01/06 00:11:51;;;;;;;21.95;8.05;;;;;;;-15.33;52.12;99423.41;6275361;22;20334;-54
2024/01/06 00:14:16;;;;;;;20.10;7.63;;;;;;;-15.30;52.39;99424.34;6276054;22;20019;-52
2024/01/06 00:16:42;;;;;;;17.95;6.32;;;;;;;-15.23;52.06;99427.84;6275954;22;20004;-54
2024/01/06 00:19:07;;;;;;;16.60;6.20;;;;;;;-15.52;51.86;99384.59;6276624;22;20007;-54
2024/01/06 00:21:33;;;;;;;17.80;7.72;;;;;;;-15.35;52.37;99419.97;6276072;22;20065;-55
2024/01/06 00:23:58;;;;;;;24.15;7.72;;;;;;;-15.36;53.14;99415.66;6275653;22;20010;-53
2024/01/06 00:26:27;;;;;;;20.52;7.78;;;;;;;-15.38;52.81;99407.06;6276361;22;20007;-53
2024/01/06 00:28:52;;;;;;;13.80;6.20;;;;;;;-15.20;52.96;99420.19;6277152;22;20057;-53
2024/01/06 00:31:19;;;;;;;9.27;4.28;;;;;;;-15.08;52.72;99398.16;6277587;22;20008;-55
2024/01/06 00:33:45;;;;;;;15.90;6.18;;;;;;;-15.06;52.44;99409.31;6276790;22;20000;-54
2024/01/06 00:36:10;;;;;;;19.85;6.97;;;;;;;-15.28;52.95;99397.84;6277152;22;20003;-54
2024/01/06 00:38:36;;;;;;;19.10;7.05;;;;;;;-15.34;53.38;99409.69;6277405;22;20057;-55
2024/01/06 00:41:02;;;;;;;17.60;6.82;;;;;;;-15.36;53.10;99415.66;6276310;22;20045;-57
2024/01/06 00:43:27;;;;;;;17.13;6.85;;;;;;;-15.32;53.51;99410.59;6277851;22;20004;-55
2024/01/06 00:45:53;;;;;;;17.92;6.68;;;;;;;-15.27;54.03;99420.94;6277543;22;20026;-50
2024/01/06 00:48:18;;;;;;;16.13;6.50;;;;;;;-15.20;53.46;99414.22;6276506;22;20004;-52
2024/01/06 00:50:44;;;;;;;20.83;7.38;;;;;;;-15.22;53.69;99409.03;6277516;22;20004;-53
2024/01/06 00:53:11;;;;;;;16.88;6.78;;;;;;;-15.19;54.29;99421.09;6278427;22;20011;-56
2024/01/06 00:55:36;;;;;;;16.58;6.65;;;;;;;-15.20;53.84;99419.34;6277787;22;20004;-56
2024/01/06 00:58:02;;;;;;;17.75;7.03;;;;;;;-15.29;54.35;99422.63;6276843;22;20084;-53
2024/01/06 01:00:27;;;;;;;16.85;6.72;;;;;;;-15.28;54.37;99416.66;6277308;22;19999;-57
2024/01/06 01:02:53;;;;;;;18.30;6.72;;;;;;;-15.20;53.75;99419.34;6278110;22;20082;-54
2024/01/06 01:05:18;;;;;;;14.35;6.57;;;;;;;-15.22;54.18;99415.91;6277734;22;20003;-57
2024/01/06 01:07:44;;;;;;;14.73;6.90;;;;;;;-15.19;54.08;99414.25;6277316;22;20030;-56
2024/01/06 01:10:10;;;;;;;12.73;5.60;;;;;;;-15.10;54.02;99423.78;6277463;22;20003;-55
2024/01/06 01:12:36;;;;;;;14.52;5.93;;;;;;;-15.08;54.21;99427.25;6276876;22;20015;-56
2024/01/06 01:15:01;;;;;;;18.73;6.35;;;;;;;-15.13;54.10;99426.31;6277204;22;20074;-55
2024/01/06 01:17:29;;;;;;;20.13;7.13;;;;;;;-15.06;53.73;99435.00;6277202;22;20046;-56
2024/01/06 01:19:55;;;;;;;16.38;6.47;;;;;;;-15.03;53.77;99435.03;6276003;22;20007;-52
2024/01/06 01:22:20;;;;;;;17.52;6.93;;;;;;;-14.97;53.35;99434.28;6276920;22;20087;-55
2024/01/06 01:24:46;;;;;;;20.70;6.97;;;;;;;-14.99;53.04;99435.97;6277687;22;19995;-51
2024/01/06 01:27:12;;;;;;;13.70;5.90;;;;;;;-15.07;53.24;99433.25;6277411;22;20003;-52
2024/01/06 01:29:37;;;;;;;16.27;6.32;;;;;;;-15.05;53.25;99423.88;6276978;22;20038;-56
2024/01/06 01:32:03;;;;;;;13.45;5.40;;;;;;;-14.98;53.13;99432.56;6277758;22;20088;-57
2024/01/06 01:34:29;;;;;;;12.73;5.85;;;;;;;-14.99;53.11;99418.84;6277908;22;19999;-57
2024/01/06 01:36:54;;;;;;;13.70;5.63;;;;;;;-14.97;53.30;99435.13;6276830;22;20010;-56
2024/01/06 01:39:20;;;;;;;16.48;6.10;;;;;;;-14.97;52.77;99424.84;6276931;22;20031;-56
2024/01/06 01:41:46;;;;;;;12.90;5.80;;;;;;;-14.95;52.96;99430.03;6277572;22;20031;-55
2024/01/06 01:44:12;;;;;;;18.90;5.47;;;;;;;-14.93;53.27;99423.22;6277481;22;20381;-55
2024/01/06 01:46:37;;;;;;;17.23;5.88;;;;;;;-14.96;52.92;99416.31;6277166;22;20007;-55
2024/01/06 01:49:04;;;;;;;9.60;4.55;;;;;;;-14.82;53.00;99423.38;6276898;22;20003;-53
2024/01/06 01:51:32;;;;;;;17.92;5.80;;;;;;;-15.04;53.19;99405.06;6277332;22;20091;-54
2024/01/06 01:53:59;;;;;;;15.60;5.85;;;;;;;-15.04;53.06;99428.19;6276812;22;20309;-51
2024/01/06 01:56:26;;;;;;;17.75;6.88;;;;;;;-15.09;52.97;99409.25;6277126;22;20043;-56
2024/01/06 01:58:52;;;;;;;13.13;4.65;;;;;;;-15.13;53.29;99397.22;6276919;22;20000;-54
2024/01/06 02:01:18;;;;;;;14.55;6.05;;;;;;;-15.12;53.48;99404.09;6277036;22;20447;-57
2024/01/06 02:03:44;;;;;;;15.82;6.45;;;;;;;-15.17;53.45;99397.16;6276791;22;20368;-52
2024/01/06 02:06:10;;;;;;;12.43;5.50;;;;;;;-15.07;53.50;99395.63;6276768;22;20031;-54
2024/01/06 02:08:37;;;;;;;17.90;7.07;;;;;;;-15.30;53.82;99356.72;6275871;22;20004;-54
2024/01/06 02:11:04;;;;;;;13.48;5.95;;;;;;;-14.97;53.66;99404.31;6276666;22;20012;-52
2024/01/06 02:13:37;;;;;;;17.77;6.63;;;;;;;-15.00;53.67;99409.41;6276945;22;19999;-53
2024/01/06 02:16:04;;;;;;;15.68;5.63;;;;;;;-14.98;53.62;99402.56;6277165;22;20106;-50
2024/01/06 02:18:32;;;;;;;13.63;6.00;;;;;;;-15.00;53.97;99404.25;6276773;22;20004;-54
2024/01/06 02:21:00;;;;;;;13.95;6.13;;;;;;;-14.98;53.91;99410.28;6276628;22;20010;-53
2024/01/06 02:23:27;;;;;;;20.10;7.18;;;;;;;-15.14;54.04;99386.06;6277219;22;19999;-49
2024/01/06 02:25:53;;;;;;;16.13;6.25;;;;;;;-14.94;54.08;99412.09;6276489;22;20012;-52
2024/01/06 02:28:19;;;;;;;17.67;6.53;;;;;;;-14.90;54.18;99416.44;6277100;22;20329;-49
2024/01/06 02:30:44;;;;;;;13.45;6.25;;;;;;;-14.88;54.18;99413.88;6278661;22;20003;-47
2024/01/06 02:33:10;;;;;;;17.08;6.60;;;;;;;-14.80;54.58;99429.41;6282004;22;20392;-52
2024/01/06 02:35:36;;;;;;;14.52;5.88;;;;;;;-14.75;54.59;99413.22;6282118;22;20007;-51
2024/01/06 02:38:02;;;;;;;16.63;6.55;;;;;;;-14.80;55.00;99426.84;6277745;22;20007;-47
2024/01/06 02:40:27;;;;;;;20.08;6.50;;;;;;;-14.91;54.95;99421.53;6276358;22;20032;-50
2024/01/06 02:42:53;;;;;;;17.50;6.40;;;;;;;-15.40;54.81;99316.34;6277245;22;20047;-50
2024/01/06 02:45:18;;;;;;;17.42;6.88;;;;;;;-14.90;55.19;99413.88;6277719;22;20007;-49
2024/01/06 02:47:44;;;;;;;17.00;6.55;;;;;;;-14.90;55.51;99426.72;6277954;22;20004;-53
2024/01/06 02:50:09;;;;;;;17.92;6.40;;;;;;;-14.87;55.45;99418.16;6277293;22;20015;-54
2024/01/06 02:52:35;;;;;;;14.18;6.25;;;;;;;-14.86;55.72;99414.75;6276628;22;20004;-55
2024/01/06 02:55:01;;;;;;;17.50;6.88;;;;;;;-14.80;55.34;99421.69;6276536;22;20074;-52
2024/01/06 02:57:28;;;;;;;15.27;6.43;;;;;;;-14.73;55.37;99420.94;6277046;22;20008;-51
2024/01/06 02:59:53;;;;;;;19.95;6.82;;;;;;;-14.74;55.34;99419.22;6277279;22;20068;-50
2024/01/06 03:02:19;;;;;;;18.98;6.22;;;;;;;-15.06;55.21;99348.53;6276740;22;20327;-50
2024/01/06 03:04:44;;;;;;;12.93;5.72;;;;;;;-14.66;55.23;99403.88;6276501;22;20016;-49
2024/01/06 03:07:10;;;;;;;16.55;6.47;;;;;;;-14.58;54.73;99413.44;6277189;22;20182;-52
2024/01/06 03:09:35;;;;;;;15.73;6.40;;;;;;;-14.59;54.74;99396.28;6276555;22;20083;-54
2024/01/06 03:12:01;;;;;;;13.38;5.65;;;;;;;-14.60;54.92;99394.56;6276146;22;20062;-54
2024/01/06 03:14:26;;;;;;;17.08;6.43;;;;;;;-14.52;54.73;99396.38;6276135;22;20053;-51
2024/01/06 03:16:52;;;;;;;15.25;6.07;;;;;;;-14.54;54.60;99398.06;6276580;22;20075;-55
2024/01/06 03:19:17;;;;;;;23.27;6.93;;;;;;;-14.52;54.83;99384.38;6276785;22;20064;-49
2024/01/06 03:21:43;;;;;;;15.57;6.63;;;;;;;-14.57;55.02;99393.75;6276089;22;20000;-51
2024/01/06 03:24:11;;;;;;;18.15;7.20;;;;;;;-14.47;54.63;99382.75;6275829;22;20074;-55
2024/01/06 03:26:36;;;;;;;20.48;7.00;;;;;;;-14.42;54.63;99393.94;6275375;22;20000;-51
2024/01/06 03:29:02;;;;;;;16.38;6.45;;;;;;;-14.40;54.77;99380.25;6276703;22;20011;-53
2024/01/06 03:31:29;;;;;;;20.80;6.53;;;;;;;-14.36;54.46;99385.44;6276186;22;19999;-55
2024/01/06 03:33:55;;;;;;;19.85;7.50;;;;;;;-14.38;54.60;99393.97;6275895;22;20038;-53
2024/01/06 03:36:21;;;;;;;18.48;7.85;;;;;;;-14.46;54.46;99383.63;6276716;22;20022;-52
2024/01/06 03:38:48;;;;;;;18.13;7.13;;;;;;;-14.44;54.67;99395.63;6276469;22;20011;-50
2024/01/06 03:41:13;;;;;;;21.27;7.80;;;;;;;-14.48;54.75;99403.28;6275965;22;20039;-54
2024/01/06 03:43:39;;;;;;;21.63;7.55;;;;;;;-14.43;54.55;99409.38;6275882;22;20019;-53
2024/01/06 03:46:05;;;;;;;21.98;8.13;;;;;;;-14.46;54.53;99406.75;6275683;22;20118;-51
2024/01/06 03:48:31;;;;;;;19.25;7.05;;;;;;;-14.44;55.01;99405.06;6276301;22;20010;-49
2024/01/06 03:50:59;;;;;;;23.00;8.70;;;;;;;-14.44;54.28;99412.78;6275024;22;20007;-56
2024/01/06 03:53:24;;;;;;;22.38;8.18;;;;;;;-14.43;54.75;99407.63;6275862;22;20030;-56
2024/01/06 03:55:50;;;;;;;17.52;7.90;;;;;;;-14.41;54.80;99399.97;6276550;22;19999;-54
2024/01/06 03:58:15;;;;;;;20.80;7.57;;;;;;;-14.39;54.50;99411.13;6249072;22;20392;-54
2024/01/06 04:00:41;;;;;;;24.58;7.80;;;;;;;-14.42;54.50;99416.22;6275919;22;20389;-48
2024/01/06 04:03:07;;;;;;;16.92;7.35;;;;;;;-14.39;54.50;99418.84;6277814;22;20085;-50
2024/01/06 04:05:32;;;;;;;16.25;7.82;;;;;;;-14.40;54.59;99396.53;6278007;22;20007;-52
2024/01/06 04:07:58;;;;;;;18.50;7.85;;;;;;;-14.40;54.87;99401.69;6278115;22;20043;-55
2024/01/06 04:10:23;;;;;;;22.83;8.82;;;;;;;-14.67;54.46;99355.91;6278350;22;20397;-54
2024/01/06 04:12:49;;;;;;;17.95;7.38;;;;;;;-14.34;54.11;99396.63;6278338;22;20073;-56
2024/01/06 04:15:14;;;;;;;26.42;8.68;;;;;;;-14.36;54.52;99413.75;6278126;22;20065;-55
2024/01/06 04:17:40;;;;;;;22.00;8.45;;;;;;;-14.34;54.38;99413.78;6278625;22;20000;-54
2024/01/06 04:20:06;;;;;;;19.65;7.97;;;;;;;-14.36;54.65;99416.31;6278168;22;20003;-52
2024/01/06 04:22:31;;;;;;;21.08;8.20;;;;;;;-14.36;54.63;99418.88;6277675;22;20004;-53
2024/01/06 04:24:57;;;;;;;22.35;8.63;;;;;;;-14.35;54.62;99415.47;6278324;22;20004;-51
2024/01/06 04:27:22;;;;;;;20.13;8.65;;;;;;;-14.44;54.18;99423.06;6278946;22;20066;-54
2024/01/06 04:29:48;;;;;;;24.65;8.65;;;;;;;-14.46;55.14;99410.19;6277625;22;20514;-55
2024/01/06 04:32:13;;;;;;;21.60;8.80;;;;;;;-14.32;54.46;99420.66;6277740;22;20010;-55
2024/01/06 04:34:39;;;;;;;20.92;8.95;;;;;;;-14.60;54.42;99385.97;6278509;22;20344;-52
2024/01/06 04:37:04;;;;;;;23.10;8.88;;;;;;;-14.59;55.19;99405.69;6278100;22;19995;-51
2024/01/06 04:39:30;;;;;;;24.48;8.88;;;;;;;-14.52;54.88;99416.94;6277563;22;20023;-56
2024/01/06 04:41:56;;;;;;;28.52;9.90;;;;;;;-14.42;54.61;99411.09;6277873;22;20254;-57
2024/01/06 04:44:22;;;;;;;26.67;9.50;;;;;;;-14.49;54.90;99419.53;6278415;22;20301;-56
2024/01/06 04:46:47;;;;;;;29.90;9.90;;;;;;;-14.49;55.25;99414.41;6277791;22;20003;-53
2024/01/06 04:49:13;;;;;;;25.25;9.75;;;;;;;-14.57;54.86;99399.75;6277162;22;20007;-56
2024/01/06 04:51:38;;;;;;;31.48;11.02;;;;;;;-14.73;54.58;99362.72;6277811;22;20004;-53
2024/01/06 04:54:04;;;;;;;26.02;10.07;;;;;;;-14.34;54.84;99421.50;6278329;22;20004;-55
2024/01/06 04:56:29;;;;;;;29.02;10.57;;;;;;;-14.33;54.67;99418.91;6277831;22;20388;-54
2024/01/06 04:58:55;;;;;;;24.55;9.77;;;;;;;-14.26;54.81;99419.00;6276586;22;19999;-56
2024/01/06 05:01:21;;;;;;;26.50;10.00;;;;;;;-14.22;54.46;99425.94;6277297;22;19999;-52
2024/01/06 05:03:46;;;;;;;25.15;9.52;;;;;;;-14.18;54.49;99427.69;6278254;22;20011;-53
2024/01/06 05:06:12;;;;;;;33.80;9.80;;;;;;;-14.15;54.31;99423.44;6277353;22;20015;-55
2024/01/06 05:08:41;;;;;;;27.15;10.13;;;;;;;-14.46;54.55;99387.03;6277143;22;20059;-55
2024/01/06 05:11:07;;;;;;;30.95;10.40;;;;;;;-14.21;55.05;99433.66;6277421;22;20007;-53
2024/01/06 05:13:32;;;;;;;27.27;10.35;;;;;;;-14.17;55.23;99430.28;6277810;22;20258;-56
2024/01/06 05:15:58;;;;;;;24.42;10.10;;;;;;;-14.19;54.87;99437.09;6277920;22;20011;-52
2024/01/06 05:18:23;;;;;;;23.85;10.05;;;;;;;-14.25;54.05;99441.28;6277315;22;20029;-56
2024/01/06 05:20:49;;;;;;;31.08;11.60;;;;;;;-14.43;54.72;99433.34;6277371;22;20003;-55
2024/01/06 05:23:14;;;;;;;26.88;10.93;;;;;;;-14.57;54.31;99424.59;6277873;22;20006;-52
2024/01/06 05:25:40;;;;;;;30.83;11.13;;;;;;;-14.58;54.48;99444.28;6276422;22;20404;-51
2024/01/06 05:28:05;;;;;;;25.45;10.27;;;;;;;-14.76;54.41;99450.06;6277168;22;20014;-53
2024/01/06 05:30:31;;;;;;;27.52;9.95;;;;;;;-14.81;54.79;99453.38;6276497;22;20003;-53
2024/01/06 05:32:56;;;;;;;25.90;9.77;;;;;;;-14.87;55.03;99455.00;6278005;22;20075;-52
2024/01/06 05:35:22;;;;;;;31.95;9.88;;;;;;;-14.92;54.64;99454.09;6277008;22;20026;-49
2024/01/06 05:37:47;;;;;;;23.63;9.68;;;;;;;-14.98;55.10;99448.81;6276783;22;20007;-52
2024/01/06 05:40:14;;;;;;;25.77;9.98;;;;;;;-15.17;55.30;99438.25;6276889;22;20011;-48
2024/01/06 05:42:40;;;;;;;26.55;10.18;;;;;;;-15.19;55.21;99447.66;6276000;22;20008;-50
2024/01/06 05:45:06;;;;;;;26.15;9.65;;;;;;;-15.29;55.15;99438.03;6277661;22;20003;-48
2024/01/06 05:47:31;;;;;;;27.98;10.75;;;;;;;-15.67;55.53;99385.19;6277174;22;20007;-49
2024/01/06 05:49:57;;;;;;;28.30;10.27;;;;;;;-15.39;55.37;99447.28;6277413;22;20011;-48
2024/01/06 05:52:23;;;;;;;27.27;10.27;;;;;;;-15.43;55.69;99445.50;6277333;22;20354;-52
2024/01/06 05:54:49;;;;;;;27.02;9.88;;;;;;;-15.49;55.86;99433.41;6276066;22;20023;-48
2024/01/06 05:57:14;;;;;;;34.60;11.70;;;;;;;-15.42;55.64;99447.22;6277032;22;20003;-56
2024/01/06 05:59:40;;;;;;;29.55;11.65;;;;;;;-15.41;55.76;99443.81;6277286;22;19999;-50
2024/01/06 06:02:06;;;;;;;32.28;11.02;;;;;;;-15.38;55.77;99443.88;6276697;22;19996;-57
2024/01/06 06:04:31;;;;;;;26.77;10.57;;;;;;;-15.32;56.03;99455.97;6277149;22;20392;-57
2024/01/06 06:06:57;;;;;;;24.58;10.48;;;;;;;-15.25;55.99;99451.81;6277101;22;20020;-57
2024/01/06 06:09:22;;;;;;;35.28;11.82;;;;;;;-15.05;56.31;99460.72;6276194;22;20051;-56
2024/01/06 06:11:48;;;;;;;27.23;10.52;;;;;;;-14.87;55.94;99459.28;6277007;22;20007;-53
2024/01/06 06:14:14;;;;;;;24.98;9.30;;;;;;;-14.80;55.43;99457.69;6276084;22;20401;-51
2024/01/06 06:16:39;;;;;;;26.13;11.20;;;;;;;-14.57;54.68;99471.72;6276949;22;20381;-55
2024/01/06 06:19:05;;;;;;;30.65;10.80;;;;;;;-14.47;54.72;99482.13;6276023;22;20074;-52
2024/01/06 06:21:31;;;;;;;26.63;10.30;;;;;;;-14.48;54.12;99449.53;6277466;22;20432;-52
2024/01/06 06:23:56;;;;;;;24.92;9.77;;;;;;;-14.35;53.89;99460.88;6277218;22;20142;-53
2024/01/06 06:26:22;;;;;;;30.88;10.90;;;;;;;-14.40;54.03;99457.38;6276443;22;20389;-54
2024/01/06 06:28:47;;;;;;;28.60;10.80;;;;;;;-14.34;53.73;99471.19;6277272;22;20098;-50
2024/01/06 06:31:13;;;;;;;30.05;11.10;;;;;;;-14.30;54.01;99480.69;6277397;22;20059;-48
2024/01/06 06:33:39;;;;;;;34.63;12.13;;;;;;;-14.25;53.79;99482.44;6276659;22;20347;-48
2024/01/06 06:36:06;;;;;;;29.77;11.23;;;;;;;-14.16;53.62;99472.31;6275939;22;20396;-50
2024/01/06 06:38:32;;;;;;;33.72;12.05;;;;;;;-14.13;53.77;99472.34;6277601;22;20000;-47
2024/01/06 06:40:58;;;;;;;28.63;11.35;;;;;;;-14.05;53.04;99472.44;6277560;22;20022;-48
2024/01/06 06:43:23;;;;;;;28.80;10.93;;;;;;;-14.01;52.96;99471.66;6276697;22;20016;-51
2024/01/06 06:45:49;;;;;;;31.55;11.35;;;;;;;-14.00;53.24;99479.38;6276778;22;20430;-53
2024/01/06 06:48:14;;;;;;;27.92;10.63;;;;;;;-13.97;53.46;99480.28;6275862;22;20007;-55
2024/01/06 06:50:43;;;;;;;23.75;10.35;;;;;;;-13.93;53.13;99490.59;6276908;22;20380;-57
2024/01/06 06:53:09;;;;;;;24.23;9.55;;;;;;;-13.87;52.69;99494.97;6276353;22;20015;-54
2024/01/06 06:55:34;;;;;;;27.75;10.30;;;;;;;-14.03;53.07;99461.31;6276453;22;20004;-53
2024/01/06 06:58:00;;;;;;;31.15;10.57;;;;;;;-13.93;52.78;99466.59;6277130;22;20003;-54
2024/01/06 07:00:25;;;;;;;28.00;11.52;;;;;;;-13.82;52.65;99485.59;6276903;22;20352;-51
2024/01/06 07:02:51;;;;;;;22.52;9.93;;;;;;;-13.77;52.38;99488.25;6275875;22;20409;-53
2024/01/06 07:05:17;;;;;;;29.25;11.80;;;;;;;-13.86;52.26;99468.41;6276253;22;20008;-55
2024/01/06 07:07:46;;;;;;;32.00;10.70;;;;;;;-13.73;52.60;99488.31;6276697;22;20080;-55
2024/01/06 07:10:12;;;;;;;28.67;12.25;;;;;;;-13.75;52.24;99479.69;6275772;22;20003;-55
2024/01/06 07:12:38;;;;;;;30.35;11.75;;;;;;;-13.67;52.64;99486.66;6276096;22;20008;-55
2024/01/06 07:15:04;;;;;;;28.23;11.15;;;;;;;-13.58;52.38;99484.16;6276558;22;20011;-54
2024/01/06 07:17:30;;;;;;;32.60;11.25;;;;;;;-13.49;52.00;99484.28;6276832;22;20003;-51
2024/01/06 07:19:56;;;;;;;33.47;12.00;;;;;;;-13.45;52.29;99480.91;6276770;22;20003;-52
2024/01/06 07:22:22;;;;;;;28.83;11.52;;;;;;;-13.44;52.23;99471.44;6276377;22;20330;-48
2024/01/06 07:24:47;;;;;;;36.78;12.02;;;;;;;-13.25;52.48;99479.34;6275859;22;19996;-51
2024/01/06 07:27:13;;;;;;;35.35;11.85;;;;;;;-13.06;51.62;99477.81;6276512;22;20086;-50
2024/01/06 07:29:38;;;;;;;30.60;11.68;;;;;;;-12.89;51.63;99484.00;6276386;22;20052;-50
2024/01/06 07:32:06;;;;;;;33.42;11.88;;;;;;;-12.90;51.22;99477.09;6276606;22;20025;-53
2024/01/06 07:34:32;;;;;;;29.70;11.15;;;;;;;-12.75;51.09;99483.25;6276605;22;20074;-50
2024/01/06 07:36:57;;;;;;;34.53;12.07;;;;;;;-12.75;51.19;99491.84;6275701;22;20033;-55
2024/01/06 07:39:24;;;;;;;28.27;12.02;;;;;;;-12.76;51.03;99489.28;6276124;22;20292;-50
2024/01/06 07:41:50;;;;;;;28.40;11.18;;;;;;;-12.69;50.97;99499.63;6276193;22;20305;-52
2024/01/06 07:44:16;;;;;;;30.92;11.98;;;;;;;-12.72;51.26;99491.00;6275874;22;19999;-54
2024/01/06 07:46:42;;;;;;;31.52;11.25;;;;;;;-12.72;51.29;99499.59;6276172;22;20436;-57
2024/01/06 07:49:07;;;;;;;36.40;12.43;;;;;;;-12.76;51.45;99481.53;6275895;22;20003;-50
2024/01/06 07:51:34;;;;;;;31.65;12.52;;;;;;;-12.67;51.10;99481.59;6274556;22;20003;-54
2024/01/06 07:54:01;;;;;;;38.42;12.77;;;;;;;-12.61;50.97;99493.69;6276842;22;20066;-53
2024/01/06 07:56:26;;;;;;;31.00;11.88;;;;;;;-12.62;50.77;99497.97;6274178;22;20031;-53
2024/01/06 07:58:52;;;;;;;31.27;11.88;;;;;;;-12.55;51.21;99493.72;6276109;22;20011;-54
2024/01/06 08:01:18;;;;;;;37.78;13.38;;;;;;;-12.58;51.19;99486.81;6276479;22;20019;-50
2024/01/06 08:03:44;;;;;;;29.58;12.20;;;;;;;-12.47;50.96;99491.22;6275514;22;20003;-59
2024/01/06 08:06:10;;;;;;;34.20;13.15;;;;;;;-12.43;51.13;99488.63;6276036;22;19996;-50
2024/01/06 08:08:35;;;;;;;29.85;12.93;;;;;;;-12.33;50.81;99481.84;6276766;22;20011;-53
2024/01/06 08:11:01;;;;;;;38.08;12.93;;;;;;;-12.28;50.33;99489.63;6275950;22;20011;-51
2024/01/06 08:13:27;;;;;;;32.38;12.43;;;;;;;-12.23;50.42;99474.16;6275292;22;20000;-53
2024/01/06 08:15:52;;;;;;;29.05;12.70;;;;;;;-12.31;50.37;99480.13;6276162;22;20008;-52
2024/01/06 08:18:18;;;;;;;35.30;13.00;;;;;;;-12.34;50.51;99466.38;6275164;22;20033;-57
2024/01/06 08:20:43;;;;;;;34.65;11.48;;;;;;;-12.39;50.28;99447.41;6275765;22;20000;-56
2024/01/06 08:23:10;;;;;;;34.13;13.25;;;;;;;-12.59;50.35;99438.66;6275939;22;20397;-55
2024/01/06 08:25:36;;;;;;;35.15;13.05;;;;;;;-12.43;50.17;99454.25;6276796;22;20000;-52
2024/01/06 08:28:01;;;;;;;30.52;12.82;;;;;;;-12.28;50.57;99467.28;6275932;22;20023;-53
2024/01/06 08:30:27;;;;;;;34.03;13.43;;;;;;;-12.17;50.47;99472.50;6275491;22;20078;-51
2024/01/06 08:32:52;;;;;;;36.28;13.18;;;;;;;-12.11;50.25;99458.75;6276015;22;19999;-51
2024/01/06 08:35:19;;;;;;;38.03;16.33;;;;;;;-12.04;50.59;99460.53;6276307;22;19999;-52
2024/01/06 08:37:45;;;;;;;30.48;12.00;;;;;;;-11.94;49.66;99447.63;6275678;22;20003;-53
2024/01/06 08:40:11;;;;;;;38.03;12.38;;;;;;;-12.00;49.79;99451.91;6275875;22;20008;-52
2024/01/06 08:42:38;;;;;;;37.55;14.05;;;;;;;-11.98;49.95;99465.69;6276188;22;20007;-59
2024/01/06 08:45:04;;;;;;;30.95;12.43;;;;;;;-11.87;49.90;99457.97;6276357;22;20007;-56
2024/01/06 08:47:31;;;;;;;34.13;13.48;;;;;;;-11.77;49.14;99476.09;6275986;22;20000;-51
2024/01/06 08:49:56;;;;;;;35.55;12.93;;;;;;;-12.04;49.62;99444.16;6276850;22;20090;-55
2024/01/06 08:52:22;;;;;;;33.30;13.13;;;;;;;-11.81;50.46;99477.81;6277858;22;20007;-50
2024/01/06 08:54:51;;;;;;;34.70;13.35;;;;;;;-11.76;50.05;99473.53;6277881;22;20405;-51
2024/01/06 08:57:17;;;;;;;36.67;13.48;;;;;;;-11.73;49.93;99455.47;6277823;22;20050;-57
2024/01/06 08:59:45;;;;;;;35.88;13.07;;;;;;;-11.71;49.61;99460.63;6277219;22;20078;-56
2024/01/06 09:02:11;;;;;;;31.05;13.80;;;;;;;-11.75;49.90;99470.09;6278019;22;20079;-53
2024/01/06 09:04:36;;;;;;;36.80;14.35;;;;;;;-12.06;50.10;99420.91;6278364;22;20333;-56
2024/01/06 09:07:02;;;;;;;36.55;12.82;;;;;;;-11.90;50.64;99418.38;6277594;22;20065;-57
2024/01/06 09:09:28;;;;;;;37.25;13.00;;;;;;;-11.69;49.86;99446.00;6277277;22;20004;-55
2024/01/06 09:11:53;;;;;;;33.47;13.02;;;;;;;-11.68;49.10;99446.00;6277526;22;20003;-54
2024/01/06 09:14:19;;;;;;;33.20;12.55;;;;;;;-11.73;49.44;99442.53;6278301;22;20051;-56
2024/01/06 09:16:45;;;;;;;32.92;13.15;;;;;;;-11.72;50.33;99444.28;6277581;22;20362;-53
2024/01/06 09:19:10;;;;;;;33.60;12.15;;;;;;;-11.64;49.84;99453.75;6276598;22;20289;-55
2024/01/06 09:21:36;;;;;;;34.60;14.07;;;;;;;-11.56;49.63;99446.91;6277296;22;20411;-53
2024/01/06 09:24:06;;;;;;;31.05;14.00;;;;;;;-11.54;49.84;99448.63;6277840;22;20455;-52
2024/01/06 09:26:34;;;;;;;32.13;12.52;;;;;;;-11.48;49.51;99439.16;6277185;22;20004;-53
2024/01/06 09:29:01;;;;;;;29.48;13.23;;;;;;;-11.44;49.44;99444.34;6276945;22;20102;-59
2024/01/06 09:31:27;;;;;;;34.90;13.50;;;;;;;-11.39;49.93;99445.22;6277031;22;20035;-54
2024/01/06 09:33:52;;;;;;;38.28;15.50;;;;;;;-11.35;49.49;99434.88;6276537;22;20011;-53
2024/01/06 09:36:18;;;;;;;31.80;13.65;;;;;;;-11.33;49.40;99433.16;6277432;22;20018;-54
2024/01/06 09:38:44;;;;;;;32.92;14.60;;;;;;;-11.37;49.88;99428.84;6276951;22;20007;-54
2024/01/06 09:41:09;;;;;;;36.38;15.07;;;;;;;-11.36;50.43;99428.00;6246594;23;20445;-58
2024/01/06 09:43:35;;;;;;;38.50;14.93;;;;;;;-11.26;49.73;99424.59;6246550;23;20058;-53
2024/01/06 09:46:29;;;;;;;35.75;14.82;;;;;;;-11.19;49.76;99438.38;6219625;23;20075;-56
2024/01/06 09:48:56;;;;;;;44.38;14.55;;;;;;;-11.39;49.69;99429.72;6235494;23;20034;-51
2024/01/06 09:51:22;;;;;;;39.00;15.25;;;;;;;-11.46;49.96;99442.59;6219895;23;20010;-55
2024/01/06 09:53:52;;;;;;;36.75;16.15;;;;;;;-11.40;50.42;99437.47;6246400;23;20377;-53
2024/01/06 09:56:18;;;;;;;36.83;15.20;;;;;;;-11.35;49.96;99434.88;6246764;23;20005;-55
2024/01/06 09:58:44;;;;;;;36.85;15.70;;;;;;;-11.32;50.68;99432.34;6246586;23;20146;-53
2024/01/06 10:01:11;;;;;;;34.95;14.77;;;;;;;-11.33;49.76;99436.63;6246667;23;20000;-51
2024/01/06 10:03:37;;;;;;;38.80;15.63;;;;;;;-11.36;49.87;99422.81;6246675;23;20000;-56
2024/01/06 10:06:04;;;;;;;42.95;15.93;;;;;;;-11.45;50.19;99429.72;6246433;23;19996;-54
2024/01/06 10:08:32;;;;;;;39.50;14.80;;;;;;;-11.68;50.27;99390.91;6246148;23;20004;-56
2024/01/06 10:10:59;;;;;;;36.33;15.02;;;;;;;-11.48;50.60;99413.31;6246300;23;20305;-55
2024/01/06 10:13:25;;;;;;;37.47;15.85;;;;;;;-11.39;50.04;99421.97;6246504;23;20073;-57
2024/01/06 10:15:50;;;;;;;37.47;15.23;;;;;;;-11.39;50.65;99431.44;6246445;23;20405;-56
2024/01/06 10:18:16;;;;;;;39.95;14.63;;;;;;;-11.29;50.47;99424.59;6246095;23;20019;-54
2024/01/06 10:20:44;;;;;;;40.20;15.40;;;;;;;-11.35;50.59;99402.16;6246790;23;20087;-52
2024/01/06 10:23:10;;;;;;;35.25;15.65;;;;;;;-11.51;50.54;99365.13;6246546;23;20066;-55
2024/01/06 10:25:35;;;;;;;39.22;15.80;;;;;;;-11.21;50.29;99415.09;6219457;23;20289;-52
2024/01/06 10:28:04;;;;;;;35.42;15.07;;;;;;;-11.22;50.29;99421.13;6246062;23;20070;-53
2024/01/06 10:30:29;;;;;;;42.25;15.90;;;;;;;-11.33;49.67;99412.50;6246492;23;20082;-52
2024/01/06 10:32:55;;;;;;;35.25;12.63;;;;;;;-11.22;50.11;99413.38;6245800;23;20084;-54
2024/01/06 10:35:20;;;;;;;31.70;14.75;;;;;;;-11.40;50.09;99406.47;6245849;23;20004;-54
2024/01/06 10:37:47;;;;;;;37.97;15.82;;;;;;;-11.62;50.16;99384.88;6246226;23;20000;-54
2024/01/06 10:40:18;;;;;;;36.28;15.00;;;;;;;-11.68;50.44;99398.66;6265734;22;20016;-51
2024/01/06 10:42:45;;;;;;;32.60;13.77;;;;;;;-11.59;50.30;99401.25;6276583;22;20325;-56
2024/01/06 10:45:12;;;;;;;33.55;14.80;;;;;;;-11.93;51.12;99405.44;6276227;22;20011;-56
2024/01/06 10:47:42;;;;;;;39.78;16.45;;;;;;;-12.27;51.61;99347.72;6276433;22;20403;-57
2024/01/06 10:50:08;;;;;;;40.25;15.80;;;;;;;-11.70;50.59;99401.22;6276868;22;20443;-54
2024/01/06 10:52:37;;;;;;;39.75;16.58;;;;;;;-11.86;50.87;99384.84;6276531;22;20035;-51
2024/01/06 10:55:04;;;;;;;41.53;16.42;;;;;;;-11.83;51.64;99402.03;6276255;22;20004;-52
2024/01/06 10:57:33;;;;;;;34.35;15.45;;;;;;;-11.81;50.75;99400.34;6276295;22;20249;-53
2024/01/06 10:59:59;;;;;;;39.65;16.25;;;;;;;-11.98;51.32;99388.22;6276619;22;20407;-54
2024/01/06 11:02:26;;;;;;;38.65;16.15;;;;;;;-11.98;51.63;99398.56;6276603;22;19999;-52
2024/01/06 11:04:52;;;;;;;32.58;14.63;;;;;;;-11.80;51.14;99396.03;6276259;22;20030;-55
2024/01/06 11:07:24;;;;;;;37.65;16.63;;;;;;;-12.29;51.30;99336.53;6276484;22;20003;-53
2024/01/06 11:10:08;;;;;;;39.15;17.52;;;;;;;-12.01;52.05;99390.84;6276995;22;20007;-53